sensor_id;sensor_type;location;lat;lon;timestamp;P1;durP1;ratioP1;P2;durP2;ratioP2
56629;SDS011;42502;40.732;-74.254;2023-03-01T00:00:22;3.80;;;1.40;;
56629;SDS011;42502;40.732;-74.254;2023-03-01T00:02:25;2.03;;;1.20;;
56629;SDS011;42502;40.732;-74.254;2023-03-01T00:04:26;2.00;;;1.20;;
56629;SDS011;42502;40.732;-74.254;2023-03-01T00:06:27;4.47;;;1.10;;
56629;SDS011;42502;40.732;-74.254;2023-03-01T00:08:31;3.53;;;1.15;;
56629;SDS011;42502;40.732;-74.254;2023-03-01T00:10:32;3.45;;;1.10;;
56629;SDS011;42502;40.732;-74.254;2023-03-01T00:12:33;7.95;;;1.10;;
56629;SDS011;42502;40.732;-74.254;2023-03-01T00:14:35;6.57;;;1.83;;
56629;SDS011;42502;40.732;-74.254;2023-03-01T00:16:37;3.97;;;1.00;;
56629;SDS011;42502;40.732;-74.254;2023-03-01T00:18:39;3.85;;;0.95;;
56629;SDS011;42502;40.732;-74.254;2023-03-01T00:20:40;3.88;;;1.02;;
56629;SDS011;42502;40.732;-74.254;2023-03-01T00:22:41;4.32;;;1.00;;
56629;SDS011;42502;40.732;-74.254;2023-03-01T00:24:42;2.90;;;0.80;;
56629;SDS011;42502;40.732;-74.254;2023-03-01T00:26:43;1.88;;;0.90;;
56629;SDS011;42502;40.732;-74.254;2023-03-01T00:28:46;1.45;;;0.85;;
56629;SDS011;42502;40.732;-74.254;2023-03-01T00:30:47;3.08;;;0.80;;
56629;SDS011;42502;40.732;-74.254;2023-03-01T00:32:48;2.72;;;0.88;;
56629;SDS011;42502;40.732;-74.254;2023-03-01T00:34:49;4.28;;;1.13;;
56629;SDS011;42502;40.732;-74.254;2023-03-01T00:39:07;4.22;;;0.90;;
56629;SDS011;42502;40.732;-74.254;2023-03-01T00:41:13;1.63;;;0.70;;
56629;SDS011;42502;40.732;-74.254;2023-03-01T00:43:16;2.53;;;0.88;;
56629;SDS011;42502;40.732;-74.254;2023-03-01T00:45:17;12.77;;;0.90;;
56629;SDS011;42502;40.732;-74.254;2023-03-01T00:47:18;9.57;;;1.00;;
56629;SDS011;42502;40.732;-74.254;2023-03-01T00:49:19;18.67;;;1.00;;
56629;SDS011;42502;40.732;-74.254;2023-03-01T00:51:21;10.20;;;0.80;;
56629;SDS011;42502;40.732;-74.254;2023-03-01T00:53:24;24.35;;;1.23;;
56629;SDS011;42502;40.732;-74.254;2023-03-01T00:55:25;11.88;;;0.73;;
56629;SDS011;42502;40.732;-74.254;2023-03-01T00:57:26;34.85;;;2.47;;
56629;SDS011;42502;40.732;-74.254;2023-03-01T00:59:27;21.33;;;1.30;;
56629;SDS011;42502;40.732;-74.254;2023-03-01T01:01:29;25.58;;;1.42;;
56629;SDS011;42502;40.732;-74.254;2023-03-01T01:03:31;7.90;;;0.90;;
56629;SDS011;42502;40.732;-74.254;2023-03-01T01:05:34;26.27;;;1.45;;
56629;SDS011;42502;40.732;-74.254;2023-03-01T01:07:35;13.85;;;1.27;;
56629;SDS011;42502;40.732;-74.254;2023-03-01T01:09:36;16.00;;;1.10;;
56629;SDS011;42502;40.732;-74.254;2023-03-01T01:11:39;8.27;;;0.80;;
56629;SDS011;42502;40.732;-74.254;2023-03-01T01:13:40;13.77;;;0.93;;
56629;SDS011;42502;40.732;-74.254;2023-03-01T01:15:43;14.52;;;1.00;;
56629;SDS011;42502;40.732;-74.254;2023-03-01T01:17:44;9.38;;;0.80;;
56629;SDS011;42502;40.732;-74.254;2023-03-01T01:19:45;5.63;;;0.80;;
56629;SDS011;42502;40.732;-74.254;2023-03-01T01:21:46;5.88;;;0.98;;
56629;SDS011;42502;40.732;-74.254;2023-03-01T01:23:48;10.35;;;0.82;;
56629;SDS011;42502;40.732;-74.254;2023-03-01T01:25:49;14.38;;;0.85;;
56629;SDS011;42502;40.732;-74.254;2023-03-01T01:27:50;8.52;;;0.70;;
56629;SDS011;42502;40.732;-74.254;2023-03-01T01:29:52;3.55;;;0.65;;
56629;SDS011;42502;40.732;-74.254;2023-03-01T01:31:53;5.30;;;0.73;;
56629;SDS011;42502;40.732;-74.254;2023-03-01T01:33:55;3.63;;;0.70;;
56629;SDS011;42502;40.732;-74.254;2023-03-01T01:35:56;3.55;;;0.70;;
56629;SDS011;42502;40.732;-74.254;2023-03-01T01:37:58;1.52;;;0.63;;
56629;SDS011;42502;40.732;-74.254;2023-03-01T01:39:59;3.70;;;0.70;;
56629;SDS011;42502;40.732;-74.254;2023-03-01T01:42:01;1.38;;;0.55;;
56629;SDS011;42502;40.732;-74.254;2023-03-01T01:44:13;2.50;;;0.60;;
56629;SDS011;42502;40.732;-74.254;2023-03-01T01:46:25;1.05;;;0.77;;
56629;SDS011;42502;40.732;-74.254;2023-03-01T01:48:43;2.95;;;0.80;;
56629;SDS011;42502;40.732;-74.254;2023-03-01T01:50:53;2.85;;;0.68;;
56629;SDS011;42502;40.732;-74.254;2023-03-01T01:52:59;1.92;;;0.63;;
56629;SDS011;42502;40.732;-74.254;2023-03-01T01:55:02;3.88;;;0.70;;
56629;SDS011;42502;40.732;-74.254;2023-03-01T01:57:25;5.70;;;0.60;;
56629;SDS011;42502;40.732;-74.254;2023-03-01T01:59:30;6.50;;;0.70;;
56629;SDS011;42502;40.732;-74.254;2023-03-01T02:01:35;1.63;;;0.63;;
56629;SDS011;42502;40.732;-74.254;2023-03-01T02:03:36;0.80;;;0.60;;
56629;SDS011;42502;40.732;-74.254;2023-03-01T02:07:46;7.13;;;1.00;;
56629;SDS011;42502;40.732;-74.254;2023-03-01T02:09:50;4.68;;;0.60;;
56629;SDS011;42502;40.732;-74.254;2023-03-01T02:11:52;3.53;;;0.70;;
56629;SDS011;42502;40.732;-74.254;2023-03-01T02:13:54;0.80;;;0.60;;
56629;SDS011;42502;40.732;-74.254;2023-03-01T02:15:55;4.30;;;0.60;;
56629;SDS011;42502;40.732;-74.254;2023-03-01T02:17:56;2.45;;;0.55;;
56629;SDS011;42502;40.732;-74.254;2023-03-01T02:20:43;3.17;;;0.60;;
56629;SDS011;42502;40.732;-74.254;2023-03-01T02:22:34;1.00;;;0.68;;
56629;SDS011;42502;40.732;-74.254;2023-03-01T02:27:05;2.22;;;0.52;;
56629;SDS011;42502;40.732;-74.254;2023-03-01T02:29:07;2.50;;;0.68;;
56629;SDS011;42502;40.732;-74.254;2023-03-01T02:31:09;1.48;;;0.70;;
56629;SDS011;42502;40.732;-74.254;2023-03-01T02:33:35;5.03;;;0.60;;
56629;SDS011;42502;40.732;-74.254;2023-03-01T02:35:39;9.63;;;0.70;;
56629;SDS011;42502;40.732;-74.254;2023-03-01T02:37:40;5.35;;;1.00;;
56629;SDS011;42502;40.732;-74.254;2023-03-01T02:39:44;2.35;;;0.57;;
56629;SDS011;42502;40.732;-74.254;2023-03-01T02:41:50;3.75;;;0.60;;
56629;SDS011;42502;40.732;-74.254;2023-03-01T02:43:54;0.80;;;0.50;;
56629;SDS011;42502;40.732;-74.254;2023-03-01T02:45:57;5.13;;;0.50;;
56629;SDS011;42502;40.732;-74.254;2023-03-01T02:48:03;3.30;;;0.65;;
56629;SDS011;42502;40.732;-74.254;2023-03-01T02:50:42;4.05;;;0.60;;
56629;SDS011;42502;40.732;-74.254;2023-03-01T02:55:52;1.98;;;0.50;;
56629;SDS011;42502;40.732;-74.254;2023-03-01T02:57:56;2.20;;;0.57;;
56629;SDS011;42502;40.732;-74.254;2023-03-01T03:00:02;1.38;;;0.55;;
56629;SDS011;42502;40.732;-74.254;2023-03-01T03:02:07;1.58;;;0.52;;
56629;SDS011;42502;40.732;-74.254;2023-03-01T03:04:20;2.13;;;0.60;;
56629;SDS011;42502;40.732;-74.254;2023-03-01T03:06:22;0.65;;;0.47;;
56629;SDS011;42502;40.732;-74.254;2023-03-01T03:08:23;1.65;;;0.50;;
56629;SDS011;42502;40.732;-74.254;2023-03-01T03:10:26;2.58;;;0.60;;
56629;SDS011;42502;40.732;-74.254;2023-03-01T03:12:28;0.93;;;0.57;;
56629;SDS011;42502;40.732;-74.254;2023-03-01T03:14:29;4.03;;;0.60;;
56629;SDS011;42502;40.732;-74.254;2023-03-01T03:16:34;1.35;;;0.50;;
56629;SDS011;42502;40.732;-74.254;2023-03-01T03:18:38;8.30;;;0.80;;
56629;SDS011;42502;40.732;-74.254;2023-03-01T03:20:41;1.42;;;0.60;;
56629;SDS011;42502;40.732;-74.254;2023-03-01T03:22:43;2.88;;;0.70;;
56629;SDS011;42502;40.732;-74.254;2023-03-01T03:24:46;2.22;;;0.50;;
56629;SDS011;42502;40.732;-74.254;2023-03-01T03:26:47;3.92;;;0.60;;
56629;SDS011;42502;40.732;-74.254;2023-03-01T03:28:48;7.43;;;0.70;;
56629;SDS011;42502;40.732;-74.254;2023-03-01T03:30:49;2.13;;;0.70;;
56629;SDS011;42502;40.732;-74.254;2023-03-01T03:32:50;5.68;;;0.90;;
56629;SDS011;42502;40.732;-74.254;2023-03-01T03:34:54;0.95;;;0.50;;
56629;SDS011;42502;40.732;-74.254;2023-03-01T03:36:55;1.55;;;0.55;;
56629;SDS011;42502;40.732;-74.254;2023-03-01T03:39:02;1.40;;;0.60;;
56629;SDS011;42502;40.732;-74.254;2023-03-01T03:41:04;0.80;;;0.60;;
56629;SDS011;42502;40.732;-74.254;2023-03-01T03:43:09;1.88;;;0.60;;
56629;SDS011;42502;40.732;-74.254;2023-03-01T03:45:12;1.85;;;0.55;;
56629;SDS011;42502;40.732;-74.254;2023-03-01T03:47:13;3.22;;;0.70;;
56629;SDS011;42502;40.732;-74.254;2023-03-01T03:49:14;4.82;;;0.70;;
56629;SDS011;42502;40.732;-74.254;2023-03-01T03:51:16;1.05;;;0.50;;
56629;SDS011;42502;40.732;-74.254;2023-03-01T03:53:18;4.03;;;0.85;;
56629;SDS011;42502;40.732;-74.254;2023-03-01T03:55:20;4.05;;;0.70;;
56629;SDS011;42502;40.732;-74.254;2023-03-01T03:57:21;1.02;;;0.60;;
56629;SDS011;42502;40.732;-74.254;2023-03-01T03:59:22;0.85;;;0.57;;
56629;SDS011;42502;40.732;-74.254;2023-03-01T04:01:23;1.70;;;0.50;;
56629;SDS011;42502;40.732;-74.254;2023-03-01T04:03:25;4.63;;;0.70;;
56629;SDS011;42502;40.732;-74.254;2023-03-01T04:05:27;3.97;;;0.88;;
56629;SDS011;42502;40.732;-74.254;2023-03-01T04:07:28;2.15;;;0.60;;
56629;SDS011;42502;40.732;-74.254;2023-03-01T04:09:29;1.17;;;0.50;;
56629;SDS011;42502;40.732;-74.254;2023-03-01T04:11:30;3.13;;;0.50;;
56629;SDS011;42502;40.732;-74.254;2023-03-01T04:13:31;2.15;;;0.50;;
56629;SDS011;42502;40.732;-74.254;2023-03-01T04:15:32;6.70;;;0.60;;
56629;SDS011;42502;40.732;-74.254;2023-03-01T04:17:33;2.00;;;0.50;;
56629;SDS011;42502;40.732;-74.254;2023-03-01T04:19:35;1.67;;;0.50;;
56629;SDS011;42502;40.732;-74.254;2023-03-01T04:21:36;1.85;;;0.50;;
56629;SDS011;42502;40.732;-74.254;2023-03-01T04:23:37;0.70;;;0.50;;
56629;SDS011;42502;40.732;-74.254;2023-03-01T04:27:55;0.52;;;0.50;;
56629;SDS011;42502;40.732;-74.254;2023-03-01T04:29:56;2.30;;;0.40;;
56629;SDS011;42502;40.732;-74.254;2023-03-01T04:31:57;2.55;;;0.50;;
56629;SDS011;42502;40.732;-74.254;2023-03-01T04:33:59;2.15;;;0.55;;
56629;SDS011;42502;40.732;-74.254;2023-03-01T04:36:02;2.15;;;0.60;;
56629;SDS011;42502;40.732;-74.254;2023-03-01T04:38:05;1.67;;;0.50;;
56629;SDS011;42502;40.732;-74.254;2023-03-01T04:40:08;0.80;;;0.60;;
56629;SDS011;42502;40.732;-74.254;2023-03-01T04:42:16;1.65;;;0.50;;
56629;SDS011;42502;40.732;-74.254;2023-03-01T04:44:17;0.77;;;0.50;;
56629;SDS011;42502;40.732;-74.254;2023-03-01T04:46:19;1.13;;;0.60;;
56629;SDS011;42502;40.732;-74.254;2023-03-01T04:48:21;1.38;;;0.52;;
56629;SDS011;42502;40.732;-74.254;2023-03-01T04:50:22;0.82;;;0.60;;
56629;SDS011;42502;40.732;-74.254;2023-03-01T04:52:23;2.47;;;0.47;;
56629;SDS011;42502;40.732;-74.254;2023-03-01T04:54:25;0.80;;;0.50;;
56629;SDS011;42502;40.732;-74.254;2023-03-01T04:56:26;1.08;;;0.45;;
56629;SDS011;42502;40.732;-74.254;2023-03-01T04:58:27;0.80;;;0.50;;
56629;SDS011;42502;40.732;-74.254;2023-03-01T05:00:28;2.10;;;0.57;;
56629;SDS011;42502;40.732;-74.254;2023-03-01T05:02:29;0.80;;;0.55;;
56629;SDS011;42502;40.732;-74.254;2023-03-01T05:04:30;0.50;;;0.50;;
56629;SDS011;42502;40.732;-74.254;2023-03-01T05:06:31;0.60;;;0.50;;
56629;SDS011;42502;40.732;-74.254;2023-03-01T05:08:34;0.95;;;0.60;;
56629;SDS011;42502;40.732;-74.254;2023-03-01T05:10:37;0.90;;;0.57;;
56629;SDS011;42502;40.732;-74.254;2023-03-01T05:12:38;1.20;;;0.50;;
56629;SDS011;42502;40.732;-74.254;2023-03-01T05:14:39;0.77;;;0.50;;
56629;SDS011;42502;40.732;-74.254;2023-03-01T05:16:41;2.15;;;0.50;;
56629;SDS011;42502;40.732;-74.254;2023-03-01T05:18:41;3.83;;;0.50;;
56629;SDS011;42502;40.732;-74.254;2023-03-01T05:20:43;1.65;;;0.50;;
56629;SDS011;42502;40.732;-74.254;2023-03-01T05:22:44;1.05;;;0.60;;
56629;SDS011;42502;40.732;-74.254;2023-03-01T05:24:48;0.88;;;0.50;;
56629;SDS011;42502;40.732;-74.254;2023-03-01T05:26:54;1.75;;;0.50;;
56629;SDS011;42502;40.732;-74.254;2023-03-01T05:28:55;0.40;;;0.40;;
56629;SDS011;42502;40.732;-74.254;2023-03-01T05:31:00;1.40;;;0.60;;
56629;SDS011;42502;40.732;-74.254;2023-03-01T05:33:01;0.55;;;0.52;;
56629;SDS011;42502;40.732;-74.254;2023-03-01T05:35:02;0.98;;;0.68;;
56629;SDS011;42502;40.732;-74.254;2023-03-01T05:37:03;0.55;;;0.50;;
56629;SDS011;42502;40.732;-74.254;2023-03-01T05:39:05;0.93;;;0.60;;
56629;SDS011;42502;40.732;-74.254;2023-03-01T05:41:12;0.63;;;0.50;;
56629;SDS011;42502;40.732;-74.254;2023-03-01T05:43:18;0.73;;;0.50;;
56629;SDS011;42502;40.732;-74.254;2023-03-01T05:45:19;0.65;;;0.50;;
56629;SDS011;42502;40.732;-74.254;2023-03-01T05:47:20;1.80;;;0.60;;
56629;SDS011;42502;40.732;-74.254;2023-03-01T05:49:24;1.40;;;0.73;;
56629;SDS011;42502;40.732;-74.254;2023-03-01T05:51:25;1.10;;;0.50;;
56629;SDS011;42502;40.732;-74.254;2023-03-01T05:53:26;1.02;;;0.50;;
56629;SDS011;42502;40.732;-74.254;2023-03-01T05:55:34;2.97;;;0.65;;
56629;SDS011;42502;40.732;-74.254;2023-03-01T05:57:35;1.10;;;0.70;;
56629;SDS011;42502;40.732;-74.254;2023-03-01T05:59:36;0.60;;;0.50;;
56629;SDS011;42502;40.732;-74.254;2023-03-01T06:01:37;1.05;;;0.50;;
56629;SDS011;42502;40.732;-74.254;2023-03-01T06:03:38;0.77;;;0.50;;
56629;SDS011;42502;40.732;-74.254;2023-03-01T06:05:40;0.73;;;0.50;;
56629;SDS011;42502;40.732;-74.254;2023-03-01T06:07:41;0.50;;;0.40;;
56629;SDS011;42502;40.732;-74.254;2023-03-01T06:09:42;0.60;;;0.50;;
56629;SDS011;42502;40.732;-74.254;2023-03-01T06:11:53;0.90;;;0.50;;
56629;SDS011;42502;40.732;-74.254;2023-03-01T06:13:54;0.65;;;0.60;;
56629;SDS011;42502;40.732;-74.254;2023-03-01T06:15:55;0.52;;;0.52;;
56629;SDS011;42502;40.732;-74.254;2023-03-01T06:17:58;0.50;;;0.50;;
56629;SDS011;42502;40.732;-74.254;2023-03-01T06:19:59;1.00;;;0.68;;
56629;SDS011;42502;40.732;-74.254;2023-03-01T06:22:01;1.63;;;0.52;;
56629;SDS011;42502;40.732;-74.254;2023-03-01T06:24:02;0.60;;;0.50;;
56629;SDS011;42502;40.732;-74.254;2023-03-01T06:26:06;0.75;;;0.60;;
56629;SDS011;42502;40.732;-74.254;2023-03-01T06:28:08;1.95;;;0.60;;
56629;SDS011;42502;40.732;-74.254;2023-03-01T06:30:09;0.88;;;0.60;;
56629;SDS011;42502;40.732;-74.254;2023-03-01T06:32:15;1.73;;;0.50;;
56629;SDS011;42502;40.732;-74.254;2023-03-01T06:34:16;2.42;;;0.57;;
56629;SDS011;42502;40.732;-74.254;2023-03-01T06:36:17;0.80;;;0.40;;
56629;SDS011;42502;40.732;-74.254;2023-03-01T06:38:21;0.70;;;0.50;;
56629;SDS011;42502;40.732;-74.254;2023-03-01T06:40:22;1.35;;;0.50;;
56629;SDS011;42502;40.732;-74.254;2023-03-01T06:42:26;0.60;;;0.50;;
56629;SDS011;42502;40.732;-74.254;2023-03-01T06:44:30;1.73;;;0.57;;
56629;SDS011;42502;40.732;-74.254;2023-03-01T06:46:31;1.60;;;0.63;;
56629;SDS011;42502;40.732;-74.254;2023-03-01T06:48:33;1.23;;;0.50;;
56629;SDS011;42502;40.732;-74.254;2023-03-01T06:50:34;0.60;;;0.50;;
56629;SDS011;42502;40.732;-74.254;2023-03-01T06:52:35;0.95;;;0.50;;
56629;SDS011;42502;40.732;-74.254;2023-03-01T06:54:36;0.60;;;0.50;;
56629;SDS011;42502;40.732;-74.254;2023-03-01T06:56:37;0.80;;;0.55;;
56629;SDS011;42502;40.732;-74.254;2023-03-01T06:58:38;0.65;;;0.50;;
56629;SDS011;42502;40.732;-74.254;2023-03-01T07:00:39;0.90;;;0.47;;
56629;SDS011;42502;40.732;-74.254;2023-03-01T07:02:40;0.57;;;0.47;;
56629;SDS011;42502;40.732;-74.254;2023-03-01T07:04:42;0.50;;;0.50;;
56629;SDS011;42502;40.732;-74.254;2023-03-01T07:06:42;2.65;;;0.60;;
56629;SDS011;42502;40.732;-74.254;2023-03-01T07:08:43;0.60;;;0.60;;
56629;SDS011;42502;40.732;-74.254;2023-03-01T07:10:44;0.50;;;0.50;;
56629;SDS011;42502;40.732;-74.254;2023-03-01T07:12:52;0.50;;;0.50;;
56629;SDS011;42502;40.732;-74.254;2023-03-01T07:14:55;0.73;;;0.50;;
56629;SDS011;42502;40.732;-74.254;2023-03-01T07:16:56;1.50;;;0.50;;
56629;SDS011;42502;40.732;-74.254;2023-03-01T07:18:59;0.60;;;0.50;;
56629;SDS011;42502;40.732;-74.254;2023-03-01T07:21:04;1.33;;;0.50;;
56629;SDS011;42502;40.732;-74.254;2023-03-01T07:23:06;0.40;;;0.40;;
56629;SDS011;42502;40.732;-74.254;2023-03-01T07:25:13;0.50;;;0.50;;
56629;SDS011;42502;40.732;-74.254;2023-03-01T07:27:14;1.58;;;0.40;;
56629;SDS011;42502;40.732;-74.254;2023-03-01T07:29:15;0.93;;;0.50;;
56629;SDS011;42502;40.732;-74.254;2023-03-01T07:31:16;0.50;;;0.50;;
56629;SDS011;42502;40.732;-74.254;2023-03-01T07:33:17;1.48;;;0.50;;
56629;SDS011;42502;40.732;-74.254;2023-03-01T07:35:18;0.50;;;0.43;;
56629;SDS011;42502;40.732;-74.254;2023-03-01T07:37:22;0.50;;;0.47;;
56629;SDS011;42502;40.732;-74.254;2023-03-01T07:39:22;0.88;;;0.50;;
56629;SDS011;42502;40.732;-74.254;2023-03-01T07:41:24;1.50;;;0.60;;
56629;SDS011;42502;40.732;-74.254;2023-03-01T07:43:24;0.50;;;0.50;;
56629;SDS011;42502;40.732;-74.254;2023-03-01T07:45:25;2.08;;;0.40;;
56629;SDS011;42502;40.732;-74.254;2023-03-01T07:47:27;0.82;;;0.50;;
56629;SDS011;42502;40.732;-74.254;2023-03-01T07:49:28;1.80;;;0.45;;
56629;SDS011;42502;40.732;-74.254;2023-03-01T07:51:31;0.65;;;0.50;;
56629;SDS011;42502;40.732;-74.254;2023-03-01T07:53:33;0.50;;;0.40;;
56629;SDS011;42502;40.732;-74.254;2023-03-01T07:55:37;0.45;;;0.40;;
56629;SDS011;42502;40.732;-74.254;2023-03-01T07:57:38;0.60;;;0.40;;
56629;SDS011;42502;40.732;-74.254;2023-03-01T07:59:39;0.88;;;0.50;;
56629;SDS011;42502;40.732;-74.254;2023-03-01T08:01:40;1.70;;;0.60;;
56629;SDS011;42502;40.732;-74.254;2023-03-01T08:03:41;0.95;;;0.50;;
56629;SDS011;42502;40.732;-74.254;2023-03-01T08:05:43;0.40;;;0.40;;
56629;SDS011;42502;40.732;-74.254;2023-03-01T08:07:44;1.98;;;0.43;;
56629;SDS011;42502;40.732;-74.254;2023-03-01T08:09:45;0.75;;;0.40;;
56629;SDS011;42502;40.732;-74.254;2023-03-01T08:11:46;1.73;;;0.50;;
56629;SDS011;42502;40.732;-74.254;2023-03-01T08:13:49;1.58;;;0.50;;
56629;SDS011;42502;40.732;-74.254;2023-03-01T08:15:50;0.55;;;0.40;;
56629;SDS011;42502;40.732;-74.254;2023-03-01T08:17:55;0.75;;;0.50;;
56629;SDS011;42502;40.732;-74.254;2023-03-01T08:19:55;0.38;;;0.38;;
56629;SDS011;42502;40.732;-74.254;2023-03-01T08:21:56;0.40;;;0.40;;
56629;SDS011;42502;40.732;-74.254;2023-03-01T08:24:04;0.50;;;0.47;;
56629;SDS011;42502;40.732;-74.254;2023-03-01T08:26:08;0.47;;;0.40;;
56629;SDS011;42502;40.732;-74.254;2023-03-01T08:28:12;0.50;;;0.40;;
56629;SDS011;42502;40.732;-74.254;2023-03-01T08:30:13;0.43;;;0.43;;
56629;SDS011;42502;40.732;-74.254;2023-03-01T08:32:14;0.90;;;0.50;;
56629;SDS011;42502;40.732;-74.254;2023-03-01T08:34:16;0.50;;;0.40;;
56629;SDS011;42502;40.732;-74.254;2023-03-01T08:36:18;0.60;;;0.40;;
56629;SDS011;42502;40.732;-74.254;2023-03-01T08:38:20;0.43;;;0.40;;
56629;SDS011;42502;40.732;-74.254;2023-03-01T08:40:21;0.65;;;0.47;;
56629;SDS011;42502;40.732;-74.254;2023-03-01T08:42:22;0.88;;;0.40;;
56629;SDS011;42502;40.732;-74.254;2023-03-01T08:44:26;1.33;;;0.40;;
56629;SDS011;42502;40.732;-74.254;2023-03-01T08:46:31;0.50;;;0.40;;
56629;SDS011;42502;40.732;-74.254;2023-03-01T08:48:33;0.40;;;0.40;;
56629;SDS011;42502;40.732;-74.254;2023-03-01T08:50:34;0.60;;;0.50;;
56629;SDS011;42502;40.732;-74.254;2023-03-01T08:52:35;0.55;;;0.45;;
56629;SDS011;42502;40.732;-74.254;2023-03-01T08:54:36;0.82;;;0.50;;
56629;SDS011;42502;40.732;-74.254;2023-03-01T08:56:37;0.40;;;0.40;;
56629;SDS011;42502;40.732;-74.254;2023-03-01T08:58:44;0.60;;;0.40;;
56629;SDS011;42502;40.732;-74.254;2023-03-01T09:00:48;0.55;;;0.50;;
56629;SDS011;42502;40.732;-74.254;2023-03-01T09:02:49;1.42;;;0.40;;
56629;SDS011;42502;40.732;-74.254;2023-03-01T09:04:53;0.50;;;0.40;;
56629;SDS011;42502;40.732;-74.254;2023-03-01T09:06:54;1.15;;;0.60;;
56629;SDS011;42502;40.732;-74.254;2023-03-01T09:08:55;0.32;;;0.30;;
56629;SDS011;42502;40.732;-74.254;2023-03-01T09:10:56;0.30;;;0.30;;
56629;SDS011;42502;40.732;-74.254;2023-03-01T09:12:57;0.60;;;0.40;;
56629;SDS011;42502;40.732;-74.254;2023-03-01T09:15:01;0.40;;;0.40;;
56629;SDS011;42502;40.732;-74.254;2023-03-01T09:17:02;0.63;;;0.40;;
56629;SDS011;42502;40.732;-74.254;2023-03-01T09:19:03;0.70;;;0.40;;
56629;SDS011;42502;40.732;-74.254;2023-03-01T09:21:06;0.80;;;0.30;;
56629;SDS011;42502;40.732;-74.254;2023-03-01T09:23:18;0.63;;;0.32;;
56629;SDS011;42502;40.732;-74.254;2023-03-01T09:25:19;0.40;;;0.30;;
56629;SDS011;42502;40.732;-74.254;2023-03-01T09:27:20;0.30;;;0.30;;
56629;SDS011;42502;40.732;-74.254;2023-03-01T09:29:21;0.30;;;0.30;;
56629;SDS011;42502;40.732;-74.254;2023-03-01T09:31:23;0.50;;;0.32;;
56629;SDS011;42502;40.732;-74.254;2023-03-01T09:33:24;0.43;;;0.40;;
56629;SDS011;42502;40.732;-74.254;2023-03-01T09:35:26;0.90;;;0.40;;
56629;SDS011;42502;40.732;-74.254;2023-03-01T09:37:28;0.35;;;0.32;;
56629;SDS011;42502;40.732;-74.254;2023-03-01T09:39:28;0.40;;;0.30;;
56629;SDS011;42502;40.732;-74.254;2023-03-01T09:43:47;0.40;;;0.30;;
56629;SDS011;42502;40.732;-74.254;2023-03-01T09:45:54;0.50;;;0.38;;
56629;SDS011;42502;40.732;-74.254;2023-03-01T09:47:59;0.52;;;0.30;;
56629;SDS011;42502;40.732;-74.254;2023-03-01T09:50:17;0.70;;;0.40;;
56629;SDS011;42502;40.732;-74.254;2023-03-01T09:54:57;0.47;;;0.40;;
56629;SDS011;42502;40.732;-74.254;2023-03-01T09:57:06;0.30;;;0.30;;
56629;SDS011;42502;40.732;-74.254;2023-03-01T09:59:23;0.50;;;0.40;;
56629;SDS011;42502;40.732;-74.254;2023-03-01T10:01:38;0.30;;;0.30;;
56629;SDS011;42502;40.732;-74.254;2023-03-01T10:04:13;0.43;;;0.30;;
56629;SDS011;42502;40.732;-74.254;2023-03-01T10:06:32;0.30;;;0.30;;
56629;SDS011;42502;40.732;-74.254;2023-03-01T10:08:46;0.43;;;0.30;;
56629;SDS011;42502;40.732;-74.254;2023-03-01T10:10:52;0.30;;;0.30;;
56629;SDS011;42502;40.732;-74.254;2023-03-01T10:12:54;0.30;;;0.30;;
56629;SDS011;42502;40.732;-74.254;2023-03-01T10:15:12;0.32;;;0.30;;
56629;SDS011;42502;40.732;-74.254;2023-03-01T10:17:24;0.60;;;0.40;;
56629;SDS011;42502;40.732;-74.254;2023-03-01T10:19:30;0.60;;;0.30;;
56629;SDS011;42502;40.732;-74.254;2023-03-01T10:21:39;0.50;;;0.30;;
56629;SDS011;42502;40.732;-74.254;2023-03-01T10:23:45;0.30;;;0.30;;
56629;SDS011;42502;40.732;-74.254;2023-03-01T10:28:24;0.30;;;0.20;;
56629;SDS011;42502;40.732;-74.254;2023-03-01T10:30:38;0.40;;;0.30;;
56629;SDS011;42502;40.732;-74.254;2023-03-01T10:32:42;0.35;;;0.30;;
56629;SDS011;42502;40.732;-74.254;2023-03-01T10:34:44;0.52;;;0.30;;
56629;SDS011;42502;40.732;-74.254;2023-03-01T10:36:48;0.43;;;0.30;;
56629;SDS011;42502;40.732;-74.254;2023-03-01T10:38:52;0.60;;;0.25;;
56629;SDS011;42502;40.732;-74.254;2023-03-01T10:40:56;0.35;;;0.28;;
56629;SDS011;42502;40.732;-74.254;2023-03-01T10:42:58;0.30;;;0.30;;
56629;SDS011;42502;40.732;-74.254;2023-03-01T10:45:19;0.65;;;0.30;;
56629;SDS011;42502;40.732;-74.254;2023-03-01T10:47:30;0.20;;;0.20;;
56629;SDS011;42502;40.732;-74.254;2023-03-01T10:49:31;0.30;;;0.30;;
56629;SDS011;42502;40.732;-74.254;2023-03-01T10:51:32;0.30;;;0.20;;
56629;SDS011;42502;40.732;-74.254;2023-03-01T10:53:36;0.50;;;0.30;;
56629;SDS011;42502;40.732;-74.254;2023-03-01T10:55:41;1.23;;;0.30;;
56629;SDS011;42502;40.732;-74.254;2023-03-01T10:57:42;0.43;;;0.30;;
56629;SDS011;42502;40.732;-74.254;2023-03-01T10:59:43;0.47;;;0.30;;
56629;SDS011;42502;40.732;-74.254;2023-03-01T11:01:44;0.57;;;0.22;;
56629;SDS011;42502;40.732;-74.254;2023-03-01T11:03:45;0.30;;;0.30;;
56629;SDS011;42502;40.732;-74.254;2023-03-01T11:08:12;0.45;;;0.30;;
56629;SDS011;42502;40.732;-74.254;2023-03-01T11:10:16;2.08;;;0.30;;
56629;SDS011;42502;40.732;-74.254;2023-03-01T11:12:21;1.48;;;0.20;;
56629;SDS011;42502;40.732;-74.254;2023-03-01T11:14:25;0.75;;;0.38;;
56629;SDS011;42502;40.732;-74.254;2023-03-01T11:18:41;1.95;;;0.30;;
56629;SDS011;42502;40.732;-74.254;2023-03-01T11:20:42;1.42;;;0.30;;
56629;SDS011;42502;40.732;-74.254;2023-03-01T11:22:47;1.25;;;0.20;;
56629;SDS011;42502;40.732;-74.254;2023-03-01T11:24:53;0.85;;;0.40;;
56629;SDS011;42502;40.732;-74.254;2023-03-01T11:26:56;0.57;;;0.25;;
56629;SDS011;42502;40.732;-74.254;2023-03-01T11:29:04;1.70;;;0.30;;
56629;SDS011;42502;40.732;-74.254;2023-03-01T11:31:12;2.55;;;0.55;;
56629;SDS011;42502;40.732;-74.254;2023-03-01T11:35:36;4.10;;;0.28;;
56629;SDS011;42502;40.732;-74.254;2023-03-01T11:40:13;1.75;;;0.30;;
56629;SDS011;42502;40.732;-74.254;2023-03-01T11:42:20;0.65;;;0.30;;
56629;SDS011;42502;40.732;-74.254;2023-03-01T11:44:29;3.20;;;0.20;;
56629;SDS011;42502;40.732;-74.254;2023-03-01T11:47:18;0.45;;;0.22;;
56629;SDS011;42502;40.732;-74.254;2023-03-01T11:51:55;1.15;;;0.20;;
56629;SDS011;42502;40.732;-74.254;2023-03-01T11:56:40;1.75;;;0.20;;
56629;SDS011;42502;40.732;-74.254;2023-03-01T12:04:43;0.50;;;0.35;;
56629;SDS011;42502;40.732;-74.254;2023-03-01T12:08:42;1.42;;;0.30;;
56629;SDS011;42502;40.732;-74.254;2023-03-01T12:15:48;0.28;;;0.25;;
56629;SDS011;42502;40.732;-74.254;2023-03-01T12:18:07;1.88;;;0.40;;
56629;SDS011;42502;40.732;-74.254;2023-03-01T12:20:47;1.85;;;0.35;;
56629;SDS011;42502;40.732;-74.254;2023-03-01T12:23:16;1.13;;;0.28;;
56629;SDS011;42502;40.732;-74.254;2023-03-01T12:44:37;1.35;;;0.40;;
56629;SDS011;42502;40.732;-74.254;2023-03-01T12:51:19;4.70;;;0.40;;
56629;SDS011;42502;40.732;-74.254;2023-03-01T12:55:48;2.55;;;0.50;;
56629;SDS011;42502;40.732;-74.254;2023-03-01T13:00:41;4.20;;;0.50;;
56629;SDS011;42502;40.732;-74.254;2023-03-01T13:03:09;4.55;;;0.60;;
56629;SDS011;42502;40.732;-74.254;2023-03-01T13:07:41;2.10;;;0.50;;
56629;SDS011;42502;40.732;-74.254;2023-03-01T13:12:02;2.17;;;0.63;;
56629;SDS011;42502;40.732;-74.254;2023-03-01T13:18:30;4.65;;;0.65;;
56629;SDS011;42502;40.732;-74.254;2023-03-01T13:20:33;4.50;;;0.70;;
56629;SDS011;42502;40.732;-74.254;2023-03-01T13:22:35;3.90;;;0.50;;
56629;SDS011;42502;40.732;-74.254;2023-03-01T13:24:40;2.35;;;0.60;;
56629;SDS011;42502;40.732;-74.254;2023-03-01T13:29:25;5.15;;;0.52;;
56629;SDS011;42502;40.732;-74.254;2023-03-01T13:35:40;3.72;;;0.60;;